Time;durP1;ratioP1;P1;durP2;ratioP2;P2;SDS_P1;SDS_P2;PMS_P1;PMS_P2;Temp;Humidity;BMP_temperature;BMP_pressure;BME280_temperature;BME280_humidity;BME280_pressure;Samples;Min_cycle;Max_cycle;Signal;HPM_P1;HPM_P2
2022/08/02 00:00:19;;;;;;;8.48;4.43;;;23.40;99.90;;;;;;4938358;29;20257;-77
2022/08/02 00:02:48;;;;;;;6.18;3.92;;;23.40;99.90;;;;;;4952233;29;20183;-77
2022/08/02 00:05:16;;;;;;;9.20;4.55;;;23.40;99.90;;;;;;4955333;28;20680;-77
2022/08/02 00:07:42;;;;;;;6.25;3.53;;;23.40;99.90;;;;;;4972096;28;20674;-77
2022/08/02 00:10:11;;;;;;;6.82;4.03;;;23.40;99.90;;;;;;4955852;28;20389;-77
2022/08/02 00:12:38;;;;;;;8.52;3.97;;;23.40;99.90;;;;;;4971273;28;20183;-77
2022/08/02 00:15:07;;;;;;;6.75;3.42;;;23.40;99.90;;;;;;4987045;28;20190;-77
2022/08/02 00:17:33;;;;;;;7.47;3.78;;;23.40;99.90;;;;;;4972185;28;20194;-77
2022/08/02 00:20:00;;;;;;;7.05;3.53;;;23.30;99.90;;;;;;4970257;28;20215;-76
2022/08/02 00:22:27;;;;;;;5.95;3.25;;;23.20;99.90;;;;;;4952582;28;20218;-77
2022/08/02 00:24:53;;;;;;;7.63;3.40;;;23.20;99.90;;;;;;4966243;28;20301;-77
2022/08/02 00:27:19;;;;;;;5.23;3.20;;;23.20;99.90;;;;;;4967514;28;20193;-77
2022/08/02 00:29:45;;;;;;;6.17;3.40;;;23.20;99.90;;;;;;4966082;28;20201;-76
2022/08/02 00:32:12;;;;;;;5.70;3.20;;;23.20;99.90;;;;;;4971028;28;20190;-76
2022/08/02 00:34:39;;;;;;;6.53;3.23;;;23.20;99.90;;;;;;4969465;28;20198;-76
2022/08/02 00:37:05;;;;;;;5.63;3.42;;;23.20;99.90;;;;;;4952999;28;20194;-77
2022/08/02 00:39:32;;;;;;;6.28;3.20;;;23.10;99.90;;;;;;4971594;28;20277;-76
2022/08/02 00:41:58;;;;;;;6.22;3.70;;;23.10;99.90;;;;;;4971137;28;20186;-77
2022/08/02 00:44:25;;;;;;;5.97;3.40;;;23.10;99.90;;;;;;4968207;28;20222;-77
2022/08/02 00:46:51;;;;;;;6.80;3.42;;;23.00;99.90;;;;;;4969223;28;20256;-76
2022/08/02 00:49:17;;;;;;;7.40;3.58;;;23.00;99.90;;;;;;4969008;28;20554;-77
2022/08/02 00:51:43;;;;;;;5.35;3.25;;;23.00;99.90;;;;;;4968587;28;20194;-76
2022/08/02 00:54:09;;;;;;;5.70;3.47;;;23.00;99.90;;;;;;4952538;28;20638;-77
2022/08/02 00:56:36;;;;;;;6.43;3.60;;;23.00;99.90;;;;;;4967937;28;20186;-77
2022/08/02 00:59:03;;;;;;;6.22;3.40;;;23.00;99.90;;;;;;4969715;28;20678;-77
2022/08/02 01:01:40;;;;;;;6.07;3.23;;;23.00;99.90;;;;;;4968425;28;20187;-77
2022/08/02 01:04:12;;;;;;;7.50;3.53;;;23.00;99.90;;;;;;4970284;28;20210;-76
2022/08/02 01:06:41;;;;;;;5.50;3.40;;;23.00;99.90;;;;;;4971435;28;20199;-76
2022/08/02 01:09:08;;;;;;;10.13;3.90;;;23.00;99.90;;;;;;4968726;28;20187;-77
2022/08/02 01:11:36;;;;;;;9.07;3.73;;;23.00;99.90;;;;;;4969705;28;20194;-77
2022/08/02 01:14:08;;;;;;;7.47;3.60;;;23.00;99.90;;;;;;4964358;28;20187;-76
2022/08/02 01:16:51;;;;;;;6.53;3.83;;;23.00;99.90;;;;;;4961846;28;20659;-77
2022/08/02 01:19:57;;;;;;;6.50;3.97;;;23.00;99.90;;;;;;4955231;28;20242;-76
2022/08/02 01:22:44;;;;;;;9.07;4.03;;;22.90;99.90;;;;;;4974266;28;20198;-76
2022/08/02 01:25:57;;;;;;;5.83;3.47;;;23.00;99.90;;;;;;4970809;28;20214;-77
2022/08/02 01:28:34;;;;;;;10.23;4.43;;;23.00;99.90;;;;;;4961696;28;20761;-76
2022/08/02 01:31:27;;;;;;;7.25;4.40;;;23.00;99.90;;;;;;4967048;28;20206;-76
2022/08/02 01:34:12;;;;;;;7.00;4.40;;;23.10;99.90;;;;;;4955883;28;20334;-76
2022/08/02 01:36:45;;;;;;;9.15;3.83;;;23.00;99.90;;;;;;4965507;28;20328;-77
2022/08/02 01:39:18;;;;;;;6.00;3.53;;;23.00;99.90;;;;;;4958726;28;20187;-77
2022/08/02 01:41:46;;;;;;;8.20;3.65;;;23.10;99.90;;;;;;4949493;28;20182;-77
2022/08/02 01:44:18;;;;;;;5.93;3.30;;;23.10;99.90;;;;;;4950521;28;20245;-77
2022/08/02 01:46:47;;;;;;;3.83;2.90;;;23.10;99.90;;;;;;4959340;28;20516;-76
2022/08/02 01:49:19;;;;;;;6.15;3.40;;;23.10;99.90;;;;;;4970011;28;20182;-77
2022/08/02 01:54:39;;;;;;;7.32;3.15;;;22.90;99.90;;;;;;4949627;28;20595;-77
2022/08/02 01:57:11;;;;;;;6.35;2.75;;;23.00;99.90;;;;;;4963996;28;20205;-77
2022/08/02 01:59:39;;;;;;;5.15;3.33;;;23.00;99.90;;;;;;4966273;28;20194;-76
2022/08/02 02:02:08;;;;;;;6.32;3.00;;;23.00;99.90;;;;;;4967674;28;20282;-76
2022/08/02 02:04:37;;;;;;;7.95;3.38;;;23.10;99.90;;;;;;4967054;28;21517;-77
2022/08/02 02:07:05;;;;;;;6.70;3.28;;;23.10;99.90;;;;;;4958753;28;20274;-77
2022/08/02 02:09:38;;;;;;;5.47;2.78;;;23.10;99.90;;;;;;4952153;28;20182;-76
2022/08/02 02:12:06;;;;;;;7.43;3.40;;;23.20;99.90;;;;;;4951637;28;20189;-76
2022/08/02 02:14:35;;;;;;;6.68;3.13;;;23.30;99.90;;;;;;4952172;28;20209;-76
2022/08/02 02:17:03;;;;;;;3.42;2.38;;;23.30;99.50;;;;;;4944265;28;20220;-77
2022/08/02 02:19:34;;;;;;;3.38;2.45;;;23.30;97.20;;;;;;4969814;28;20261;-76
2022/08/02 02:22:01;;;;;;;4.00;2.40;;;23.40;95.60;;;;;;4966402;28;20232;-77
2022/08/02 02:24:27;;;;;;;6.30;2.13;;;23.30;94.70;;;;;;4966068;28;20210;-77
2022/08/02 02:26:54;;;;;;;4.37;2.40;;;23.30;94.90;;;;;;4964913;28;20193;-77
2022/08/02 02:29:26;;;;;;;3.28;1.85;;;23.20;94.20;;;;;;4965658;28;20241;-77
2022/08/02 02:31:55;;;;;;;2.45;2.10;;;23.10;92.90;;;;;;4965025;28;20213;-76
2022/08/02 02:34:40;;;;;;;2.45;1.80;;;23.00;92.20;;;;;;4960493;28;20674;-76
2022/08/02 02:37:17;;;;;;;4.63;1.98;;;22.90;91.90;;;;;;4950481;28;20194;-76
2022/08/02 02:39:45;;;;;;;2.40;2.05;;;22.90;91.90;;;;;;4964928;28;20186;-76
2022/08/02 02:42:16;;;;;;;3.97;1.70;;;22.90;90.00;;;;;;4966902;28;20781;-77
2022/08/02 02:44:46;;;;;;;2.50;1.80;;;22.80;89.40;;;;;;4980861;28;20364;-77
2022/08/02 02:47:17;;;;;;;2.15;1.80;;;22.80;89.60;;;;;;4970726;28;20675;-77
2022/08/02 02:49:49;;;;;;;3.08;1.83;;;22.80;87.30;;;;;;4968381;28;20933;-76
2022/08/02 02:52:17;;;;;;;3.50;1.80;;;22.80;86.40;;;;;;4963837;28;20198;-77
2022/08/02 02:54:47;;;;;;;3.80;2.03;;;22.90;86.50;;;;;;4966772;28;20296;-77
2022/08/02 02:57:16;;;;;;;2.65;1.92;;;23.00;87.10;;;;;;4958837;28;20198;-77
2022/08/02 02:59:43;;;;;;;2.30;2.00;;;23.10;87.80;;;;;;4963459;28;20949;-76
2022/08/02 03:02:11;;;;;;;3.87;2.00;;;23.10;87.60;;;;;;4966039;28;20281;-76
2022/08/02 03:04:40;;;;;;;4.07;2.30;;;23.20;88.00;;;;;;4967742;28;20236;-76
2022/08/02 03:07:08;;;;;;;3.42;2.28;;;23.20;88.30;;;;;;4961055;28;20198;-76
2022/08/02 03:09:34;;;;;;;3.33;2.20;;;23.30;88.80;;;;;;4952261;28;20222;-76
2022/08/02 03:12:02;;;;;;;5.15;2.20;;;23.30;87.80;;;;;;4966047;28;20213;-76
2022/08/02 03:14:29;;;;;;;3.28;2.10;;;23.30;87.90;;;;;;4941268;29;20201;-76
2022/08/02 03:16:55;;;;;;;4.00;2.00;;;23.30;88.10;;;;;;4967992;28;20199;-76
2022/08/02 03:19:22;;;;;;;3.38;2.08;;;23.30;87.70;;;;;;4960042;28;20819;-76
2022/08/02 03:21:50;;;;;;;3.03;1.90;;;23.30;87.00;;;;;;4968063;28;20197;-77
2022/08/02 03:24:17;;;;;;;4.25;2.10;;;23.30;87.70;;;;;;4965316;28;20214;-77
2022/08/02 03:26:44;;;;;;;3.75;2.20;;;23.30;88.40;;;;;;4965775;28;20194;-76
2022/08/02 03:29:10;;;;;;;3.97;2.30;;;23.30;88.50;;;;;;4959988;28;20210;-77
2022/08/02 03:31:42;;;;;;;3.00;2.20;;;23.40;89.00;;;;;;4967307;28;20190;-77
2022/08/02 03:34:09;;;;;;;5.10;2.10;;;23.40;89.70;;;;;;4949609;28;20726;-77
2022/08/02 03:36:38;;;;;;;2.70;2.00;;;23.40;90.00;;;;;;4967853;28;20542;-77
2022/08/02 03:39:07;;;;;;;5.10;1.90;;;23.40;90.00;;;;;;4967516;28;20190;-76
2022/08/02 03:41:37;;;;;;;5.68;2.00;;;23.40;89.50;;;;;;4954044;28;20190;-76
2022/08/02 03:44:05;;;;;;;4.00;2.10;;;23.40;90.20;;;;;;4967755;28;20709;-76
2022/08/02 03:46:33;;;;;;;5.57;2.60;;;23.40;91.10;;;;;;4955141;28;20198;-76
2022/08/02 03:49:01;;;;;;;5.28;2.42;;;23.40;91.90;;;;;;4972842;28;20201;-77
2022/08/02 03:51:28;;;;;;;3.45;2.38;;;23.30;92.80;;;;;;4956056;28;20789;-76
2022/08/02 03:53:55;;;;;;;7.97;2.83;;;23.30;93.60;;;;;;4969542;28;20189;-76
2022/08/02 03:56:23;;;;;;;4.65;2.60;;;23.30;94.10;;;;;;4966751;28;20225;-76
2022/08/02 03:58:49;;;;;;;3.72;2.33;;;23.30;94.50;;;;;;4952471;28;20194;-77
2022/08/02 04:01:16;;;;;;;3.73;2.23;;;23.30;94.90;;;;;;4968863;28;20628;-76
2022/08/02 04:03:42;;;;;;;6.20;2.47;;;23.30;94.80;;;;;;4971613;28;20257;-76
2022/08/02 04:06:08;;;;;;;3.63;2.47;;;23.30;95.10;;;;;;4956535;28;20685;-77
2022/08/02 04:08:35;;;;;;;5.70;2.60;;;23.30;95.20;;;;;;4948882;28;20675;-77
2022/08/02 04:13:46;;;;;;;6.60;2.53;;;23.30;95.30;;;;;;4969956;28;20281;-76
2022/08/02 04:16:21;;;;;;;5.80;2.47;;;23.30;95.40;;;;;;4945023;28;20195;-77
2022/08/02 04:19:09;;;;;;;3.45;2.38;;;23.30;95.60;;;;;;4969924;28;20264;-77
2022/08/02 04:21:40;;;;;;;4.10;2.35;;;23.30;95.80;;;;;;4983068;28;20278;-77
2022/08/02 04:24:10;;;;;;;7.53;2.10;;;23.30;96.10;;;;;;4969363;28;20697;-77
2022/08/02 04:26:41;;;;;;;5.60;2.50;;;23.30;96.10;;;;;;4953441;28;20183;-77
2022/08/02 04:29:09;;;;;;;4.53;2.45;;;23.30;96.20;;;;;;4978456;28;20253;-76
2022/08/02 04:31:36;;;;;;;5.53;2.40;;;23.40;96.60;;;;;;4955995;28;20194;-76
2022/08/02 04:34:03;;;;;;;4.20;2.28;;;23.40;96.60;;;;;;4966193;28;20551;-76
2022/08/02 04:36:30;;;;;;;3.17;2.05;;;23.40;97.10;;;;;;4950361;28;20709;-77
2022/08/02 04:38:56;;;;;;;4.30;2.38;;;23.50;97.40;;;;;;4965909;28;20413;-77
2022/08/02 04:41:35;;;;;;;3.08;2.20;;;23.50;98.10;;;;;;4968044;28;20716;-77
2022/08/02 04:44:01;;;;;;;3.58;2.53;;;23.60;98.30;;;;;;4950262;28;20764;-77
2022/08/02 04:46:28;;;;;;;8.23;2.90;;;23.60;98.40;;;;;;4973748;28;20228;-77
2022/08/02 04:48:54;;;;;;;3.95;2.60;;;23.70;98.90;;;;;;4965370;28;20187;-77
2022/08/02 04:51:20;;;;;;;3.38;2.38;;;23.80;99.20;;;;;;4968612;28;20186;-77
2022/08/02 04:53:46;;;;;;;4.78;2.45;;;23.90;99.60;;;;;;4970605;28;20200;-76
2022/08/02 04:56:12;;;;;;;5.13;3.08;;;24.00;99.90;;;;;;4954648;28;20227;-77
2022/08/02 04:58:38;;;;;;;8.07;3.10;;;24.00;99.90;;;;;;4969080;28;20205;-77
2022/08/02 05:01:05;;;;;;;3.92;2.33;;;24.00;99.90;;;;;;4951693;28;20769;-77
2022/08/02 05:03:31;;;;;;;5.22;2.40;;;24.10;99.90;;;;;;4953480;28;20209;-77
2022/08/02 05:05:59;;;;;;;4.90;2.63;;;24.10;99.90;;;;;;4970045;28;20769;-77
2022/08/02 05:08:26;;;;;;;5.43;2.80;;;24.20;99.90;;;;;;4967645;28;20182;-76
2022/08/02 05:10:52;;;;;;;3.47;2.67;;;24.30;99.90;;;;;;4953831;28;20924;-77
2022/08/02 05:13:21;;;;;;;5.20;2.90;;;24.30;99.90;;;;;;4935151;28;20187;-77
2022/08/02 05:15:50;;;;;;;4.03;2.60;;;24.40;99.90;;;;;;4967887;28;20205;-76
2022/08/02 05:18:17;;;;;;;4.75;2.90;;;24.40;99.90;;;;;;4968965;28;20204;-77
2022/08/02 05:20:43;;;;;;;4.53;2.75;;;24.50;99.90;;;;;;4969187;28;20182;-77
2022/08/02 05:23:10;;;;;;;6.60;2.78;;;24.50;99.90;;;;;;4952475;28;20799;-77
2022/08/02 05:25:36;;;;;;;7.13;2.97;;;24.60;99.40;;;;;;4965946;28;20547;-77
2022/08/02 05:28:02;;;;;;;4.65;2.83;;;24.50;99.20;;;;;;4958281;28;20268;-77
2022/08/02 05:30:29;;;;;;;5.47;3.03;;;24.60;99.00;;;;;;4979508;28;20372;-77
2022/08/02 05:32:55;;;;;;;4.32;2.80;;;24.70;99.50;;;;;;4952236;28;20692;-76
2022/08/02 05:35:23;;;;;;;6.45;2.60;;;24.70;99.50;;;;;;4952974;28;20182;-77
2022/08/02 05:37:50;;;;;;;3.70;2.83;;;24.80;99.90;;;;;;4968408;28;20197;-77
2022/08/02 05:40:18;;;;;;;5.55;2.60;;;24.80;99.10;;;;;;4966578;28;20198;-76
2022/08/02 05:42:46;;;;;;;3.95;2.85;;;24.90;98.50;;;;;;4967846;28;20678;-76
2022/08/02 05:45:12;;;;;;;6.85;3.20;;;25.00;97.80;;;;;;4971589;28;20214;-77
2022/08/02 05:47:44;;;;;;;8.10;3.20;;;25.10;98.00;;;;;;4969902;28;20220;-77
2022/08/02 05:50:10;;;;;;;2.92;2.60;;;25.10;98.40;;;;;;4967964;28;20183;-77
2022/08/02 05:53:20;;;;;;;4.60;3.50;;;25.20;98.60;;;;;;4965685;28;20274;-77
2022/08/02 05:56:16;;;;;;;6.43;3.15;;;25.30;98.00;;;;;;4957878;28;20226;-76
2022/08/02 05:58:55;;;;;;;4.82;3.35;;;25.40;98.10;;;;;;4958232;28;20256;-77
2022/08/02 06:01:38;;;;;;;5.03;3.10;;;25.50;98.90;;;;;;4960031;28;20202;-77
2022/08/02 06:04:09;;;;;;;7.95;3.25;;;25.60;99.50;;;;;;4951606;28;20677;-77
2022/08/02 06:06:42;;;;;;;10.45;3.95;;;25.70;99.90;;;;;;4965167;28;20198;-77
2022/08/02 06:09:14;;;;;;;10.10;4.22;;;25.80;99.90;;;;;;4967323;28;20202;-77
2022/08/02 06:11:48;;;;;;;6.03;3.60;;;26.00;99.90;;;;;;4947119;28;20559;-77
2022/08/02 06:14:16;;;;;;;13.25;4.93;;;26.10;99.90;;;;;;4965234;28;20230;-76
2022/08/02 06:16:43;;;;;;;13.98;5.25;;;26.20;99.90;;;;;;4967867;28;20225;-77
2022/08/02 06:19:17;;;;;;;10.25;5.30;;;26.30;99.90;;;;;;4947535;28;20210;-77
2022/08/02 06:21:47;;;;;;;9.90;5.43;;;26.40;99.90;;;;;;4964628;28;20221;-76
2022/08/02 06:24:20;;;;;;;9.40;5.40;;;26.40;99.90;;;;;;4966215;28;20218;-76
2022/08/02 06:26:54;;;;;;;10.75;5.72;;;26.50;99.90;;;;;;4951326;28;20298;-76
2022/08/02 06:29:21;;;;;;;12.73;5.68;;;26.60;99.90;;;;;;4952409;28;20817;-77
2022/08/02 06:31:50;;;;;;;10.73;5.70;;;26.70;99.90;;;;;;4963415;28;20187;-76
2022/08/02 06:34:18;;;;;;;12.52;5.80;;;26.70;99.90;;;;;;4968667;28;20740;-76
2022/08/02 06:37:17;;;;;;;12.02;5.53;;;26.70;99.90;;;;;;4963188;28;20198;-76
2022/08/02 06:39:49;;;;;;;9.18;5.40;;;26.80;99.90;;;;;;4961535;28;20222;-77
2022/08/02 06:42:25;;;;;;;8.65;4.85;;;26.90;99.90;;;;;;4967424;28;20271;-77
2022/08/02 06:44:51;;;;;;;12.40;5.57;;;26.90;99.90;;;;;;4971841;28;20217;-76
2022/08/02 06:47:18;;;;;;;13.85;5.28;;;27.00;99.90;;;;;;4957185;28;20186;-77
2022/08/02 06:49:44;;;;;;;10.75;5.10;;;27.00;99.90;;;;;;4936394;28;20293;-76
2022/08/02 06:52:11;;;;;;;11.98;5.20;;;27.00;99.90;;;;;;4951679;28;20182;-76
2022/08/02 06:54:41;;;;;;;8.23;4.53;;;27.10;99.90;;;;;;4969713;28;20186;-76
2022/08/02 06:57:08;;;;;;;6.05;4.43;;;27.10;99.90;;;;;;4960720;28;20274;-76
2022/08/02 06:59:35;;;;;;;8.00;4.50;;;27.20;99.90;;;;;;4965385;28;20661;-76
2022/08/02 07:02:02;;;;;;;9.02;4.10;;;27.30;99.90;;;;;;4967167;28;20217;-76
2022/08/02 07:04:29;;;;;;;8.93;4.00;;;27.30;99.90;;;;;;4947375;28;20654;-76
2022/08/02 07:06:56;;;;;;;8.05;4.30;;;27.40;99.90;;;;;;4969932;28;20204;-76
2022/08/02 07:09:22;;;;;;;8.73;4.30;;;27.40;99.90;;;;;;4965598;28;20189;-75
2022/08/02 07:11:48;;;;;;;7.75;4.20;;;27.50;99.90;;;;;;4971517;28;20197;-75
2022/08/02 07:14:14;;;;;;;6.35;4.10;;;27.60;99.90;;;;;;4955759;28;20193;-75
2022/08/02 07:16:41;;;;;;;9.65;4.30;;;27.60;99.90;;;;;;4974218;28;20202;-75
2022/08/02 07:19:07;;;;;;;11.68;4.65;;;27.70;99.90;;;;;;4978873;28;20213;-75
2022/08/02 07:21:33;;;;;;;10.75;4.38;;;27.90;99.90;;;;;;4972225;28;20178;-75
2022/08/02 07:24:00;;;;;;;8.10;4.50;;;28.00;99.90;;;;;;4973435;28;20272;-75
2022/08/02 07:26:26;;;;;;;7.53;4.00;;;28.00;99.90;;;;;;4958050;28;20679;-75
2022/08/02 07:28:53;;;;;;;10.25;4.43;;;28.10;99.90;;;;;;4977592;28;20194;-75
2022/08/02 07:31:20;;;;;;;10.60;4.78;;;28.20;99.90;;;;;;4979967;28;20204;-75
2022/08/02 07:33:47;;;;;;;8.10;4.10;;;28.20;99.90;;;;;;4973587;28;20626;-75
2022/08/02 07:36:13;;;;;;;9.27;4.68;;;28.30;99.90;;;;;;4971988;28;20194;-75
2022/08/02 07:38:40;;;;;;;9.35;4.80;;;28.40;99.90;;;;;;4974606;28;20194;-75
2022/08/02 07:41:06;;;;;;;11.70;4.57;;;28.50;99.90;;;;;;4969777;28;20298;-75
2022/08/02 07:43:33;;;;;;;8.50;5.00;;;28.50;99.90;;;;;;4970516;28;20206;-75
2022/08/02 07:45:59;;;;;;;9.30;4.72;;;28.60;99.90;;;;;;4975139;28;20229;-75
2022/08/02 07:48:25;;;;;;;9.85;4.80;;;28.60;99.90;;;;;;4979851;28;20872;-75
2022/08/02 07:50:54;;;;;;;7.00;4.05;;;28.70;99.90;;;;;;4973894;28;20191;-75
2022/08/02 07:53:21;;;;;;;8.50;4.47;;;28.70;99.90;;;;;;4977344;28;20426;-75
2022/08/02 07:55:47;;;;;;;11.48;4.50;;;28.80;99.90;;;;;;4974893;28;20192;-75
2022/08/02 07:58:14;;;;;;;7.70;4.50;;;29.00;99.90;;;;;;4965885;28;20206;-75
2022/08/02 08:00:43;;;;;;;6.90;4.60;;;29.00;99.90;;;;;;4968749;28;20194;-75
2022/08/02 08:03:11;;;;;;;7.05;4.30;;;29.00;99.90;;;;;;4967268;28;20190;-75
2022/08/02 08:05:38;;;;;;;8.63;3.92;;;29.10;99.90;;;;;;4973496;28;20590;-75
2022/08/02 08:08:05;;;;;;;8.13;4.57;;;29.20;99.90;;;;;;4964190;28;20233;-75
2022/08/02 08:10:31;;;;;;;8.82;4.60;;;29.30;99.90;;;;;;4970726;28;20772;-75
2022/08/02 08:12:58;;;;;;;10.18;4.88;;;29.40;99.90;;;;;;4976696;28;20202;-75
2022/08/02 08:15:24;;;;;;;8.88;4.40;;;29.60;99.90;;;;;;4968011;28;20594;-75
2022/08/02 08:17:50;;;;;;;8.18;4.45;;;29.70;99.90;;;;;;4971121;28;20210;-75
2022/08/02 08:20:17;;;;;;;6.57;4.03;;;29.70;99.90;;;;;;4970687;28;20261;-75
2022/08/02 08:22:45;;;;;;;9.90;5.20;;;29.90;99.90;;;;;;4970409;28;20183;-75
2022/08/02 08:25:11;;;;;;;8.50;4.43;;;30.00;99.90;;;;;;4972941;28;20222;-75
2022/08/02 08:27:46;;;;;;;8.18;4.53;;;30.10;99.90;;;;;;4975676;28;20604;-75
2022/08/02 08:30:12;;;;;;;8.52;4.00;;;30.10;99.90;;;;;;4969471;28;20701;-75
2022/08/02 08:32:38;;;;;;;7.97;4.72;;;30.30;99.90;;;;;;4973422;28;20206;-75
2022/08/02 08:35:06;;;;;;;7.47;4.75;;;30.40;99.90;;;;;;4962920;28;20252;-75
2022/08/02 08:37:39;;;;;;;10.30;4.90;;;30.50;99.90;;;;;;4969164;28;20202;-75
2022/08/02 08:40:11;;;;;;;8.52;4.78;;;30.60;99.90;;;;;;4958189;28;20237;-75
2022/08/02 08:42:39;;;;;;;11.23;5.30;;;30.60;99.90;;;;;;4969264;28;20202;-75
2022/08/02 08:45:08;;;;;;;8.68;4.93;;;30.70;99.90;;;;;;4973229;28;20249;-75
2022/08/02 08:47:52;;;;;;;11.82;6.13;;;30.70;99.90;;;;;;4969019;28;20228;-75
2022/08/02 08:50:26;;;;;;;11.73;5.70;;;30.70;99.90;;;;;;4968885;28;20605;-75
2022/08/02 08:53:16;;;;;;;13.90;5.93;;;30.80;99.90;;;;;;4976118;28;20744;-75
2022/08/02 08:55:44;;;;;;;15.20;6.55;;;30.90;99.90;;;;;;4966612;28;20597;-75
2022/08/02 08:58:12;;;;;;;9.90;6.07;;;31.00;99.90;;;;;;4974173;28;20179;-74
2022/08/02 09:00:42;;;;;;;12.38;5.95;;;31.00;99.90;;;;;;4953042;28;20273;-75
2022/08/02 09:03:09;;;;;;;11.68;6.57;;;31.10;99.90;;;;;;4968596;28;20201;-75
2022/08/02 09:05:38;;;;;;;12.48;6.78;;;31.10;99.90;;;;;;4977333;28;20222;-75
2022/08/02 09:08:06;;;;;;;16.83;6.90;;;31.00;99.90;;;;;;4965993;28;20595;-75
2022/08/02 09:10:44;;;;;;;13.95;6.55;;;31.00;99.90;;;;;;4973080;28;20198;-75
2022/08/02 09:13:31;;;;;;;12.32;6.53;;;30.90;99.90;;;;;;4966084;28;20189;-74
2022/08/02 09:16:03;;;;;;;15.73;6.82;;;30.90;99.90;;;;;;4964948;28;20193;-75
2022/08/02 09:18:38;;;;;;;16.33;7.13;;;31.00;99.90;;;;;;4951406;28;20190;-75
2022/08/02 09:21:07;;;;;;;17.77;7.45;;;31.00;99.90;;;;;;4964570;28;20674;-75
2022/08/02 09:23:43;;;;;;;19.45;7.13;;;31.00;99.90;;;;;;4967236;28;20224;-75
2022/08/02 09:26:18;;;;;;;15.27;6.82;;;31.00;99.90;;;;;;4965863;28;20193;-75
2022/08/02 09:28:51;;;;;;;13.05;7.20;;;31.00;99.90;;;;;;4944654;28;20197;-75
2022/08/02 09:31:22;;;;;;;19.75;7.25;;;31.10;99.90;;;;;;4964167;28;20194;-75
2022/08/02 09:33:57;;;;;;;12.43;7.32;;;31.20;99.90;;;;;;4964306;28;20202;-75
2022/08/02 09:36:27;;;;;;;14.85;7.20;;;31.40;99.90;;;;;;4949554;28;20673;-75
2022/08/02 09:39:03;;;;;;;14.18;7.13;;;31.30;99.90;;;;;;4966273;28;20377;-75
2022/08/02 09:41:42;;;;;;;16.55;7.22;;;31.40;99.90;;;;;;4981159;28;20205;-75
2022/08/02 09:44:11;;;;;;;13.85;7.50;;;31.50;99.90;;;;;;4965322;28;20210;-75
2022/08/02 09:46:45;;;;;;;13.45;7.20;;;31.50;99.90;;;;;;4948414;28;20551;-75
2022/08/02 09:49:15;;;;;;;14.30;7.05;;;31.50;99.90;;;;;;4967270;28;20209;-75
2022/08/02 09:51:55;;;;;;;14.88;7.07;;;31.50;99.90;;;;;;4966180;28;20194;-75
2022/08/02 09:54:28;;;;;;;13.93;6.95;;;31.70;99.90;;;;;;4965922;28;20190;-75
2022/08/02 09:57:00;;;;;;;15.30;6.93;;;31.80;99.90;;;;;;4962390;28;20198;-76
2022/08/02 09:59:28;;;;;;;10.15;6.43;;;31.90;99.90;;;;;;4957976;28;20205;-75
2022/08/02 10:01:58;;;;;;;13.60;6.53;;;31.90;99.90;;;;;;4948911;28;20221;-75
2022/08/02 10:04:30;;;;;;;14.98;7.05;;;32.10;99.90;;;;;;4961803;28;20214;-75
2022/08/02 10:07:02;;;;;;;14.77;6.57;;;32.20;99.90;;;;;;4951612;28;20197;-75
2022/08/02 10:10:19;;;;;;;10.75;6.65;;;32.20;99.90;;;;;;4967360;28;20220;-75
2022/08/02 10:12:45;;;;;;;15.32;7.50;;;32.20;99.90;;;;;;4952516;28;20666;-75
2022/08/02 10:15:12;;;;;;;12.73;6.78;;;32.20;99.90;;;;;;4955809;28;20205;-75
2022/08/02 10:17:39;;;;;;;14.02;6.95;;;32.20;99.90;;;;;;4969662;28;20266;-75
2022/08/02 10:20:06;;;;;;;12.07;6.47;;;32.30;99.90;;;;;;4969054;28;20268;-75
2022/08/02 10:22:35;;;;;;;17.77;6.78;;;32.30;99.90;;;;;;4971056;28;20213;-75
2022/08/02 10:25:05;;;;;;;15.82;6.90;;;32.30;99.90;;;;;;4955848;28;20232;-75
2022/08/02 10:27:33;;;;;;;13.00;6.95;;;32.40;99.90;;;;;;4969301;28;20550;-75
2022/08/02 10:30:03;;;;;;;13.75;6.78;;;32.50;99.90;;;;;;4953949;28;20233;-75
2022/08/02 10:33:00;;;;;;;17.50;7.40;;;32.40;99.90;;;;;;4966537;28;20281;-75
2022/08/02 10:35:29;;;;;;;16.90;6.72;;;32.60;99.90;;;;;;4956600;28;20233;-75
2022/08/02 10:38:06;;;;;;;14.10;7.45;;;32.60;99.90;;;;;;4968223;28;20183;-75
2022/08/02 10:40:54;;;;;;;17.65;7.03;;;32.70;99.90;;;;;;4966316;28;20190;-75
2022/08/02 10:43:36;;;;;;;15.10;6.63;;;32.60;99.90;;;;;;4968225;28;20193;-76
2022/08/02 10:46:24;;;;;;;14.57;6.53;;;32.60;99.90;;;;;;4962387;28;20654;-75
2022/08/02 10:49:12;;;;;;;12.77;6.80;;;32.60;99.90;;;;;;4944341;28;20298;-75
2022/08/02 10:51:54;;;;;;;15.48;6.75;;;32.70;99.90;;;;;;4964456;28;20195;-75
2022/08/02 10:54:24;;;;;;;12.50;6.90;;;32.70;99.90;;;;;;4953898;28;20194;-75
2022/08/02 10:56:55;;;;;;;14.68;6.85;;;32.80;99.90;;;;;;4958647;28;20193;-75
2022/08/02 10:59:27;;;;;;;13.38;6.40;;;32.80;99.90;;;;;;4967391;28;20284;-75
2022/08/02 11:02:01;;;;;;;13.38;6.20;;;32.60;99.90;;;;;;4951184;28;20197;-75
2022/08/02 11:04:36;;;;;;;12.02;6.28;;;32.60;99.90;;;;;;4971982;28;20257;-75
2022/08/02 11:07:30;;;;;;;14.75;7.10;;;32.70;99.90;;;;;;4965766;28;20279;-75
2022/08/02 11:09:59;;;;;;;12.32;6.72;;;32.70;99.90;;;;;;4961091;28;20539;-75
2022/08/02 11:12:28;;;;;;;14.40;6.70;;;32.80;99.90;;;;;;4967114;28;20664;-75
2022/08/02 11:15:04;;;;;;;14.25;5.93;;;32.90;99.90;;;;;;4967802;28;20266;-75
2022/08/02 11:17:56;;;;;;;10.68;5.80;;;32.80;99.90;;;;;;4968014;28;20611;-75
2022/08/02 11:20:25;;;;;;;14.98;6.10;;;32.90;99.90;;;;;;4950319;28;20801;-75
2022/08/02 11:23:33;;;;;;;10.60;5.97;;;32.90;99.90;;;;;;4980493;28;20253;-75
2022/08/02 11:26:30;;;;;;;13.32;6.13;;;32.90;99.90;;;;;;4977867;28;20198;-76
2022/08/02 11:29:03;;;;;;;11.10;6.28;;;32.70;99.90;;;;;;4941063;28;20233;-75
2022/08/02 11:31:42;;;;;;;14.07;5.93;;;32.60;99.90;;;;;;4963589;28;20190;-75
2022/08/02 11:34:10;;;;;;;13.88;6.32;;;32.70;99.90;;;;;;4948783;28;20857;-75
2022/08/02 11:36:51;;;;;;;11.75;6.10;;;32.80;99.90;;;;;;4965943;28;20190;-75
2022/08/02 11:39:21;;;;;;;14.77;6.60;;;32.70;99.90;;;;;;4968290;28;20186;-76
2022/08/02 11:41:59;;;;;;;14.38;7.45;;;32.80;99.90;;;;;;4964508;28;20316;-76
2022/08/02 11:44:28;;;;;;;14.50;6.28;;;32.60;99.90;;;;;;4967194;28;20214;-75
2022/08/02 11:46:59;;;;;;;12.60;6.05;;;32.60;99.90;;;;;;4964111;28;20198;-75
2022/08/02 11:49:27;;;;;;;14.88;6.55;;;32.80;99.90;;;;;;4963068;28;20186;-75
2022/08/02 11:52:04;;;;;;;14.15;6.45;;;32.80;99.90;;;;;;4962813;28;20191;-75
2022/08/02 11:54:34;;;;;;;14.75;5.80;;;32.80;99.90;;;;;;4967180;28;20289;-75
2022/08/02 11:57:21;;;;;;;12.88;6.40;;;32.80;99.90;;;;;;4967654;28;20586;-75
2022/08/02 11:59:52;;;;;;;15.55;6.07;;;32.70;99.90;;;;;;4965554;28;20661;-75
2022/08/02 12:02:34;;;;;;;13.20;6.63;;;32.90;99.90;;;;;;4973829;28;20194;-75
2022/08/02 12:05:07;;;;;;;12.52;6.63;;;32.80;99.90;;;;;;4972252;28;20515;-75
2022/08/02 12:07:38;;;;;;;10.75;6.07;;;32.80;99.90;;;;;;4966787;28;20183;-75
2022/08/02 12:10:10;;;;;;;12.15;5.88;;;32.70;99.90;;;;;;4973570;28;20182;-75
2022/08/02 12:12:59;;;;;;;12.93;6.03;;;32.70;99.90;;;;;;4965970;28;20216;-75
2022/08/02 12:15:36;;;;;;;15.10;6.28;;;32.70;99.90;;;;;;4965456;28;20197;-75
2022/08/02 12:21:00;;;;;;;14.50;5.97;;;32.70;99.90;;;;;;4965647;28;20269;-76
2022/08/02 12:23:27;;;;;;;14.02;6.25;;;32.70;99.90;;;;;;4967738;28;20655;-74
2022/08/02 12:26:08;;;;;;;13.95;5.82;;;32.80;99.90;;;;;;4967748;28;20290;-75
2022/08/02 12:28:39;;;;;;;11.23;5.97;;;32.90;99.90;;;;;;4966735;28;20305;-75
2022/08/02 12:31:12;;;;;;;19.08;6.95;;;32.80;99.90;;;;;;4963383;28;20190;-75
2022/08/02 12:33:53;;;;;;;11.60;6.25;;;32.40;99.90;;;;;;4970177;28;20686;-75
2022/08/02 12:36:29;;;;;;;14.05;6.25;;;32.60;99.90;;;;;;4969376;28;20549;-75
2022/08/02 12:39:00;;;;;;;16.17;6.35;;;32.40;99.90;;;;;;4968930;28;20189;-75
2022/08/02 12:41:28;;;;;;;20.63;6.90;;;32.30;99.90;;;;;;4969455;28;20189;-76
2022/08/02 12:43:56;;;;;;;16.65;6.32;;;32.10;99.90;;;;;;4968610;28;20222;-75
2022/08/02 12:46:24;;;;;;;13.68;6.07;;;32.10;99.90;;;;;;4966603;28;20183;-75
2022/08/02 12:48:51;;;;;;;14.77;6.20;;;32.20;99.90;;;;;;4968482;28;20194;-75
2022/08/02 12:51:35;;;;;;;16.83;6.30;;;32.30;99.90;;;;;;4951607;28;20218;-76
2022/08/02 12:54:23;;;;;;;11.50;5.78;;;32.10;99.90;;;;;;4969902;28;20194;-75
2022/08/02 12:56:50;;;;;;;25.13;7.05;;;32.10;99.90;;;;;;4945123;28;20292;-76
2022/08/02 12:59:37;;;;;;;15.77;6.75;;;32.10;99.90;;;;;;4953545;28;20269;-76
2022/08/02 13:02:07;;;;;;;17.50;6.80;;;32.10;99.90;;;;;;4972279;28;20721;-76
2022/08/02 13:04:34;;;;;;;11.07;6.22;;;32.10;99.90;;;;;;4969857;28;20210;-76
2022/08/02 13:07:02;;;;;;;11.88;6.32;;;31.80;99.90;;;;;;4954989;28;20194;-76
2022/08/02 13:09:35;;;;;;;13.43;6.70;;;31.70;99.90;;;;;;4970684;28;20335;-76
2022/08/02 13:12:04;;;;;;;16.17;6.18;;;31.80;99.90;;;;;;4952050;28;20182;-76